createdAt,value
2018-09-25T00:02:28.032Z,95.90
2018-09-25T00:05:01.384Z,95.50
2018-09-25T00:07:35.212Z,95.70
2018-09-25T00:10:08.643Z,95.80
2018-09-25T00:12:42.133Z,95.90
2018-09-25T00:15:15.559Z,95.50
2018-09-25T00:17:48.969Z,95.00
2018-09-25T00:20:22.329Z,95.30
2018-09-25T00:22:55.950Z,95.00
2018-09-25T00:25:29.568Z,95.20
2018-09-25T00:28:03.073Z,95.00
2018-09-25T00:30:36.525Z,95.60
2018-09-25T00:33:09.848Z,95.60
2018-09-25T00:35:43.373Z,96.20
2018-09-25T00:38:17.055Z,96.10
2018-09-25T00:40:50.361Z,96.50
2018-09-25T00:43:23.744Z,96.50
2018-09-25T00:45:57.168Z,96.60
2018-09-25T00:48:30.610Z,96.60
2018-09-25T00:51:04.231Z,96.80
2018-09-25T00:53:37.637Z,96.90
2018-09-25T00:56:11.021Z,97.00
2018-09-25T00:58:44.526Z,96.90
2018-09-25T01:01:17.768Z,96.90
2018-09-25T01:03:51.105Z,97.00
2018-09-25T01:06:24.539Z,97.30
2018-09-25T01:08:57.968Z,97.30
2018-09-25T01:11:31.309Z,97.50
2018-09-25T01:14:04.782Z,97.20
2018-09-25T01:16:38.288Z,97.70
2018-09-25T01:19:11.745Z,97.90
2018-09-25T01:21:45.128Z,97.80
2018-09-25T01:24:18.458Z,97.70
2018-09-25T01:26:51.998Z,97.90
2018-09-25T01:29:25.493Z,97.90
2018-09-25T01:31:58.944Z,98.30
2018-09-25T01:34:32.407Z,98.80
2018-09-25T01:37:05.797Z,98.40
2018-09-25T01:39:39.382Z,98.50
2018-09-25T01:42:12.769Z,98.80
2018-09-25T01:44:46.642Z,98.70
2018-09-25T01:47:20.000Z,99.10
2018-09-25T01:49:53.645Z,98.50
2018-09-25T01:52:27.062Z,98.70
2018-09-25T01:55:00.353Z,98.70
2018-09-25T01:57:33.828Z,98.80
2018-09-25T02:00:07.483Z,99.10
2018-09-25T02:02:40.946Z,98.90
2018-09-25T02:05:14.502Z,99.30
2018-09-25T02:07:47.772Z,99.10
2018-09-25T02:10:21.153Z,99.40
2018-09-25T02:12:54.688Z,99.40
2018-09-25T02:15:28.090Z,99.50
2018-09-25T02:18:01.533Z,99.70
2018-09-25T02:20:36.042Z,99.90
2018-09-25T02:23:09.400Z,99.90
2018-09-25T02:25:42.898Z,99.90
2018-09-25T02:28:16.217Z,99.90
2018-09-25T02:30:49.650Z,99.90
2018-09-25T02:33:22.957Z,99.90
2018-09-25T02:35:56.376Z,99.90
2018-09-25T02:38:29.842Z,99.90
2018-09-25T02:41:03.278Z,99.90
2018-09-25T02:43:36.812Z,99.90
2018-09-25T02:46:10.073Z,99.90
2018-09-25T02:48:43.477Z,99.90
2018-09-25T02:51:16.890Z,99.90
2018-09-25T02:53:50.345Z,99.90
2018-09-25T02:56:23.666Z,99.90
2018-09-25T02:58:57.020Z,99.90
2018-09-25T03:01:30.508Z,99.90
2018-09-25T03:04:04.106Z,99.90
2018-09-25T03:06:37.672Z,99.90
2018-09-25T03:09:12.752Z,99.90
2018-09-25T03:11:46.290Z,99.90
2018-09-25T03:14:19.805Z,99.90
2018-09-25T03:16:53.268Z,99.90
2018-09-25T03:19:26.658Z,99.90
2018-09-25T03:22:00.237Z,99.90
2018-09-25T03:24:33.573Z,99.90
2018-09-25T03:27:06.989Z,99.90
2018-09-25T03:29:40.514Z,99.90
2018-09-25T03:32:13.921Z,99.90
2018-09-25T03:34:47.428Z,99.90
2018-09-25T03:37:20.817Z,99.90
2018-09-25T03:39:54.357Z,99.90
2018-09-25T03:42:27.922Z,99.90
2018-09-25T03:45:01.314Z,99.90
2018-09-25T03:47:35.283Z,99.90
2018-09-25T03:50:08.812Z,99.90
2018-09-25T03:52:42.365Z,99.90
2018-09-25T03:55:15.763Z,99.90
2018-09-25T03:57:49.049Z,99.90
2018-09-25T04:00:22.541Z,99.90
2018-09-25T04:02:55.869Z,99.90
2018-09-25T04:05:29.372Z,99.90
2018-09-25T04:08:02.845Z,99.90
2018-09-25T04:10:36.246Z,99.90
2018-09-25T04:13:09.609Z,99.90
2018-09-25T04:15:43.098Z,99.90
2018-09-25T04:18:16.395Z,99.90
2018-09-25T04:20:49.718Z,99.90
2018-09-25T04:23:23.789Z,99.90
2018-09-25T04:25:57.163Z,99.90
2018-09-25T04:28:30.607Z,99.90
2018-09-25T04:31:03.990Z,99.90
2018-09-25T04:33:37.356Z,99.90
2018-09-25T04:36:10.903Z,99.90
2018-09-25T04:38:44.425Z,99.90
2018-09-25T04:41:18.067Z,99.90
2018-09-25T04:43:51.579Z,99.90
2018-09-25T04:46:24.937Z,99.90
2018-09-25T04:48:58.321Z,99.90
2018-09-25T04:51:31.728Z,99.90
2018-09-25T04:54:05.066Z,99.90
2018-09-25T04:56:38.507Z,99.90
2018-09-25T04:59:11.897Z,99.90
2018-09-25T05:01:45.445Z,99.90
2018-09-25T05:04:18.793Z,99.90
2018-09-25T05:06:52.177Z,99.90
2018-09-25T05:09:26.447Z,99.90
2018-09-25T05:12:00.147Z,99.90
2018-09-25T05:14:33.682Z,99.90
2018-09-25T05:17:07.069Z,99.90
2018-09-25T05:19:40.393Z,99.90
2018-09-25T05:22:13.857Z,99.90
2018-09-25T05:24:47.269Z,99.90
2018-09-25T05:27:20.621Z,99.90
2018-09-25T05:29:54.028Z,99.90
2018-09-25T05:32:27.393Z,99.90
2018-09-25T05:35:00.797Z,99.90
2018-09-25T05:37:35.063Z,99.90
2018-09-25T05:40:08.597Z,99.90
2018-09-25T05:42:42.069Z,99.90
2018-09-25T05:45:15.497Z,99.90
2018-09-25T05:47:49.047Z,99.90
2018-09-25T05:50:22.401Z,99.90
2018-09-25T05:52:55.829Z,99.90
2018-09-25T05:55:29.286Z,99.90
2018-09-25T05:58:02.648Z,99.90
2018-09-25T06:00:36.237Z,99.90
2018-09-25T06:03:09.748Z,99.90
2018-09-25T06:05:43.133Z,99.90
2018-09-25T06:08:16.398Z,99.90
2018-09-25T06:10:49.897Z,99.90
2018-09-25T06:13:23.237Z,99.90
2018-09-25T06:15:56.686Z,99.90
2018-09-25T06:18:30.153Z,99.90
2018-09-25T06:21:03.555Z,99.90
2018-09-25T06:23:36.837Z,99.90
2018-09-25T06:26:10.098Z,99.90
2018-09-25T06:28:43.483Z,99.90
2018-09-25T06:31:16.861Z,99.90
2018-09-25T06:33:50.154Z,99.70
2018-09-25T06:36:23.446Z,99.50
2018-09-25T06:38:56.738Z,99.00
2018-09-25T06:41:30.086Z,98.90
2018-09-25T06:44:04.257Z,98.80
2018-09-25T06:46:37.826Z,99.00
2018-09-25T06:49:12.061Z,99.30
2018-09-25T06:51:45.426Z,99.30
2018-09-25T06:54:18.768Z,99.00
2018-09-25T06:56:52.475Z,98.90
2018-09-25T06:59:25.925Z,98.80
2018-09-25T07:01:59.345Z,98.50
2018-09-25T07:04:32.753Z,98.50
2018-09-25T07:07:06.187Z,97.90
2018-09-25T07:09:39.591Z,97.90
2018-09-25T07:12:12.873Z,97.70
2018-09-25T07:14:46.225Z,97.50
2018-09-25T07:17:20.622Z,97.40
2018-09-25T07:19:54.025Z,97.10
2018-09-25T07:22:27.393Z,97.30
2018-09-25T07:25:00.798Z,96.80
2018-09-25T07:27:34.316Z,96.60
2018-09-25T07:30:07.589Z,96.60
2018-09-25T07:32:40.925Z,96.40
2018-09-25T07:35:14.352Z,96.20
2018-09-25T07:37:47.920Z,95.20
2018-09-25T07:40:21.321Z,95.70
2018-09-25T07:42:54.937Z,95.60
2018-09-25T07:45:28.372Z,95.30
2018-09-25T07:48:01.795Z,95.10
2018-09-25T07:50:35.227Z,95.20
2018-09-25T07:53:09.394Z,95.60
2018-09-25T07:55:42.653Z,95.50
2018-09-25T07:58:16.093Z,95.30
2018-09-25T08:00:49.932Z,95.30
2018-09-25T08:03:23.268Z,95.60
2018-09-25T08:05:56.801Z,95.20
2018-09-25T08:08:30.303Z,94.60
2018-09-25T08:11:03.720Z,94.80
2018-09-25T08:13:37.225Z,94.50
2018-09-25T08:16:11.663Z,94.30
2018-09-25T08:18:45.129Z,94.30
2018-09-25T08:21:18.609Z,93.90
2018-09-25T08:23:51.992Z,93.90
2018-09-25T08:26:25.540Z,93.30
2018-09-25T08:28:59.054Z,93.50
2018-09-25T08:31:32.563Z,92.80
2018-09-25T08:34:05.861Z,92.90
2018-09-25T08:36:39.269Z,92.60
2018-09-25T08:39:14.478Z,91.30
2018-09-25T08:41:48.932Z,92.60
2018-09-25T08:44:22.266Z,92.30
2018-09-25T08:46:55.621Z,91.20
2018-09-25T08:49:29.079Z,91.90
2018-09-25T08:52:02.489Z,91.90
2018-09-25T08:54:36.027Z,90.60
2018-09-25T08:57:09.413Z,90.10
2018-09-25T08:59:42.905Z,89.70
2018-09-25T09:02:16.436Z,90.70
2018-09-25T09:04:49.873Z,90.10
2018-09-25T09:07:24.009Z,89.20
2018-09-25T09:09:57.411Z,90.10
2018-09-25T09:12:30.893Z,87.40
2018-09-25T09:15:04.247Z,87.40
2018-09-25T09:17:37.648Z,86.40
2018-09-25T09:20:11.086Z,86.90
2018-09-25T09:22:44.465Z,82.30
2018-09-25T09:25:17.902Z,85.80
2018-09-25T09:27:52.102Z,88.10
2018-09-25T09:30:25.521Z,84.90
2018-09-25T09:32:59.117Z,87.30
2018-09-25T09:35:32.628Z,84.50
2018-09-25T09:38:05.913Z,83.30
2018-09-25T09:40:39.297Z,82.20
2018-09-25T09:43:12.725Z,82.50
2018-09-25T09:45:46.054Z,82.60
2018-09-25T09:48:19.550Z,81.10
2018-09-25T09:50:53.138Z,79.80
2018-09-25T09:53:26.464Z,82.60
2018-09-25T09:55:59.875Z,81.00
2018-09-25T09:58:33.229Z,79.00
2018-09-25T10:01:06.610Z,80.90
2018-09-25T10:03:40.017Z,76.50
2018-09-25T10:06:13.397Z,75.60
2018-09-25T10:08:46.741Z,74.50
2018-09-25T10:11:20.182Z,76.20
2018-09-25T10:13:53.543Z,77.70
2018-09-25T10:16:26.794Z,77.30
2018-09-25T10:19:00.202Z,71.60
2018-09-25T10:21:33.571Z,76.10
2018-09-25T10:24:07.289Z,72.60
2018-09-25T10:26:40.906Z,72.20
2018-09-25T10:29:14.237Z,75.60
2018-09-25T10:31:47.616Z,74.10
2018-09-25T10:34:20.982Z,73.80
2018-09-25T10:36:54.461Z,72.80
2018-09-25T10:39:27.882Z,72.30
2018-09-25T10:42:01.246Z,73.90
2018-09-25T10:44:34.848Z,71.60
2018-09-25T10:47:08.121Z,73.20
2018-09-25T10:49:41.487Z,71.30
2018-09-25T10:52:14.836Z,72.30
2018-09-25T10:54:48.404Z,67.50
2018-09-25T10:57:21.769Z,68.70
2018-09-25T10:59:55.143Z,69.30
2018-09-25T11:02:28.890Z,68.90
2018-09-25T11:05:02.558Z,70.10
2018-09-25T11:07:36.205Z,64.40
2018-09-25T11:10:10.195Z,62.50
2018-09-25T11:12:43.645Z,65.10
2018-09-25T11:15:16.883Z,64.60
2018-09-25T11:17:50.542Z,64.30
2018-09-25T11:20:24.222Z,68.90
2018-09-25T11:22:57.634Z,63.70
2018-09-25T11:25:31.115Z,63.10
2018-09-25T11:28:04.493Z,65.00
2018-09-25T11:30:37.858Z,64.50
2018-09-25T11:33:11.246Z,63.90
2018-09-25T11:35:44.684Z,62.60
2018-09-25T11:38:18.018Z,64.70
2018-09-25T11:40:51.477Z,63.80
2018-09-25T11:43:24.813Z,61.70
2018-09-25T11:45:58.442Z,68.50
2018-09-25T11:48:31.977Z,66.00
2018-09-25T11:51:05.506Z,62.60
2018-09-25T11:53:38.718Z,66.20
2018-09-25T11:56:12.144Z,63.40
2018-09-25T11:58:45.531Z,61.80
2018-09-25T12:01:18.885Z,64.40
2018-09-25T12:03:52.213Z,61.20
2018-09-25T12:06:25.597Z,65.60
2018-09-25T12:08:58.997Z,64.60
2018-09-25T12:11:32.491Z,65.00
2018-09-25T12:17:42.733Z,63.10
2018-09-25T12:20:16.187Z,65.70
2018-09-25T12:22:49.817Z,61.50
2018-09-25T12:25:23.181Z,66.00
2018-09-25T12:27:56.680Z,64.50
2018-09-25T12:30:30.090Z,64.30
2018-09-25T12:33:03.774Z,63.00
2018-09-25T12:35:37.227Z,62.30
2018-09-25T12:38:10.735Z,64.00
2018-09-25T12:40:44.273Z,62.20
2018-09-25T12:43:17.513Z,63.80
2018-09-25T12:45:50.933Z,60.80
2018-09-25T12:48:24.283Z,64.40
2018-09-25T12:50:57.613Z,60.70
2018-09-25T12:53:30.901Z,63.10
2018-09-25T12:56:05.390Z,59.70
2018-09-25T12:58:38.709Z,62.80
2018-09-25T13:01:12.302Z,60.60
2018-09-25T13:03:45.786Z,62.60
2018-09-25T13:06:19.186Z,64.40
2018-09-25T13:08:52.953Z,64.10
2018-09-25T13:11:26.641Z,65.20
2018-09-25T13:14:00.005Z,63.90
2018-09-25T13:16:33.389Z,64.60
2018-09-25T13:19:06.973Z,63.90
2018-09-25T13:21:40.652Z,64.00
2018-09-25T13:24:13.933Z,65.40
2018-09-25T13:26:47.465Z,64.00
2018-09-25T13:29:20.822Z,64.00
2018-09-25T13:31:54.432Z,65.50
2018-09-25T13:34:28.002Z,66.50
2018-09-25T13:37:01.501Z,64.00
2018-09-25T13:39:34.842Z,64.50
2018-09-25T13:42:08.221Z,62.40
2018-09-25T13:44:41.817Z,62.00
2018-09-25T13:47:15.197Z,60.90
2018-09-25T13:49:49.397Z,62.10
2018-09-25T13:52:23.877Z,62.30
2018-09-25T13:54:57.964Z,59.20
2018-09-25T13:57:31.394Z,59.10
2018-09-25T14:00:04.853Z,62.00
2018-09-25T14:02:38.369Z,63.90
2018-09-25T14:05:12.010Z,62.40
2018-09-25T14:07:45.262Z,61.50
2018-09-25T14:10:18.637Z,60.50
2018-09-25T14:12:52.731Z,62.30
2018-09-25T14:15:26.009Z,60.70
2018-09-25T14:18:00.516Z,62.20
2018-09-25T14:20:33.869Z,60.90
2018-09-25T14:23:07.177Z,59.60
2018-09-25T14:25:40.530Z,62.00
2018-09-25T14:28:13.879Z,61.90
2018-09-25T14:30:47.288Z,62.80
2018-09-25T14:33:20.706Z,62.90
2018-09-25T14:35:54.271Z,60.20
2018-09-25T14:38:27.734Z,61.20
2018-09-25T14:41:01.135Z,61.80
2018-09-25T14:43:35.243Z,63.20
2018-09-25T14:46:08.585Z,61.00
2018-09-25T14:48:42.010Z,61.50
2018-09-25T14:51:15.284Z,62.60
2018-09-25T14:53:48.640Z,63.00
2018-09-25T14:56:22.086Z,63.50
2018-09-25T14:58:55.921Z,61.70
2018-09-25T15:01:29.370Z,62.70
2018-09-25T15:04:02.804Z,63.70
2018-09-25T15:06:36.145Z,62.40
2018-09-25T15:09:10.297Z,63.70
2018-09-25T15:11:43.741Z,63.40
2018-09-25T15:14:17.151Z,60.90
2018-09-25T15:16:50.690Z,61.60
2018-09-25T15:19:23.942Z,62.20
2018-09-25T15:21:57.551Z,65.10
2018-09-25T15:24:30.994Z,64.60
2018-09-25T15:27:04.463Z,64.60
2018-09-25T15:29:37.879Z,65.70
2018-09-25T15:32:11.247Z,65.30
2018-09-25T15:34:44.653Z,65.70
2018-09-25T15:37:18.062Z,67.70
2018-09-25T15:39:51.504Z,68.00
2018-09-25T15:42:24.855Z,68.20
2018-09-25T15:44:58.280Z,67.60
2018-09-25T15:47:31.683Z,68.30
2018-09-25T15:50:05.145Z,68.60
2018-09-25T15:52:38.599Z,69.20
2018-09-25T15:55:12.110Z,68.90
2018-09-25T15:57:46.851Z,69.20
2018-09-25T16:00:20.478Z,70.00
2018-09-25T16:02:53.841Z,69.90
2018-09-25T16:05:27.241Z,70.20
2018-09-25T16:08:00.629Z,69.30
2018-09-25T16:10:33.998Z,69.60
2018-09-25T16:13:07.369Z,70.50
2018-09-25T16:15:40.842Z,70.80
2018-09-25T16:18:15.243Z,70.00
2018-09-25T16:20:48.683Z,70.40
2018-09-25T16:23:29.213Z,71.00
2018-09-25T16:26:02.559Z,70.70
2018-09-25T16:28:36.083Z,71.50
2018-09-25T16:31:09.443Z,72.20
2018-09-25T16:33:42.837Z,73.10
2018-09-25T16:36:16.389Z,72.70
2018-09-25T16:38:49.825Z,72.30
2018-09-25T16:41:23.176Z,72.80
2018-09-25T16:43:56.690Z,73.40
2018-09-25T16:46:30.042Z,73.90
2018-09-25T16:49:03.333Z,74.50
2018-09-25T16:51:36.667Z,76.00
2018-09-25T16:54:10.508Z,75.60
2018-09-25T16:56:43.870Z,75.30
2018-09-25T16:59:17.234Z,76.10
2018-09-25T17:01:50.812Z,76.30
2018-09-25T17:04:24.395Z,77.00
2018-09-25T17:06:58.049Z,77.30
2018-09-25T17:09:31.285Z,77.60
2018-09-25T17:12:04.749Z,78.20
2018-09-25T17:14:38.125Z,79.40
2018-09-25T17:17:11.607Z,78.70
2018-09-25T17:19:45.125Z,78.90
2018-09-25T17:22:19.262Z,79.10
2018-09-25T17:24:52.625Z,79.90
2018-09-25T17:27:26.014Z,80.30
2018-09-25T17:29:59.362Z,80.00
2018-09-25T17:32:32.894Z,80.60
2018-09-25T17:35:06.597Z,81.60
2018-09-25T17:37:40.154Z,81.70
2018-09-25T17:40:13.417Z,82.10
2018-09-25T17:42:46.809Z,81.70
2018-09-25T17:45:20.133Z,81.80
2018-09-25T17:47:53.561Z,82.40
2018-09-25T17:50:26.949Z,82.30
2018-09-25T17:53:00.422Z,82.90
2018-09-25T17:55:33.786Z,82.70
2018-09-25T17:58:07.112Z,84.00
2018-09-25T18:00:40.574Z,84.90
2018-09-25T18:03:13.941Z,85.10
2018-09-25T18:05:47.233Z,84.80
2018-09-25T18:08:20.745Z,85.60
2018-09-25T18:10:54.180Z,85.40
2018-09-25T18:13:27.753Z,86.20
2018-09-25T18:16:01.125Z,86.50
2018-09-25T18:18:34.506Z,86.60
2018-09-25T18:21:08.989Z,87.50
2018-09-25T18:23:42.330Z,87.20
2018-09-25T18:26:17.189Z,87.70
2018-09-25T18:28:51.458Z,87.50
2018-09-25T18:31:25.559Z,87.30
2018-09-25T18:33:59.216Z,87.50
2018-09-25T18:36:32.918Z,88.50
2018-09-25T18:39:06.531Z,88.50
2018-09-25T18:41:39.888Z,88.20
2018-09-25T18:44:13.446Z,88.70
2018-09-25T18:46:47.976Z,89.40
2018-09-25T18:49:21.369Z,90.00
2018-09-25T18:51:54.755Z,89.80
2018-09-25T18:54:28.627Z,90.40
2018-09-25T18:57:02.090Z,90.30
2018-09-25T18:59:36.022Z,90.00
2018-09-25T19:02:10.142Z,90.70
2018-09-25T19:04:43.538Z,90.60
2018-09-25T19:07:17.025Z,90.70
2018-09-25T19:09:50.402Z,90.60
2018-09-25T19:12:23.854Z,90.70
2018-09-25T19:14:57.413Z,91.10
2018-09-25T19:17:31.787Z,91.20
2018-09-25T19:20:05.271Z,91.30
2018-09-25T19:22:38.757Z,91.60
2018-09-25T19:25:12.192Z,91.90
2018-09-25T19:27:45.930Z,91.80
2018-09-25T19:30:19.409Z,91.60
2018-09-25T19:32:52.809Z,91.70
2018-09-25T19:35:26.218Z,91.70
2018-09-25T19:37:59.625Z,92.20
2018-09-25T19:40:33.061Z,91.90
2018-09-25T19:43:06.498Z,92.30
2018-09-25T19:45:39.849Z,92.00
2018-09-25T19:48:13.364Z,92.10
2018-09-25T19:50:46.733Z,92.30
2018-09-25T19:53:20.033Z,92.80
2018-09-25T19:55:53.611Z,92.90
2018-09-25T19:58:27.452Z,93.10
2018-09-25T20:01:01.081Z,93.10
2018-09-25T20:03:34.535Z,92.80
2018-09-25T20:06:07.929Z,93.10
2018-09-25T20:08:41.389Z,93.20
2018-09-25T20:11:14.805Z,93.40
2018-09-25T20:13:48.154Z,93.60
2018-09-25T20:16:21.644Z,93.70
2018-09-25T20:18:55.139Z,94.10
2018-09-25T20:21:28.679Z,94.10
2018-09-25T20:24:02.079Z,94.10
2018-09-25T20:26:35.433Z,94.40
2018-09-25T20:29:08.765Z,94.40
2018-09-25T20:31:42.221Z,94.70
2018-09-25T20:34:15.526Z,95.10
2018-09-25T20:36:49.077Z,94.80
2018-09-25T20:39:22.401Z,95.20
2018-09-25T20:41:55.819Z,95.60
2018-09-25T20:44:29.186Z,95.50
2018-09-25T20:47:02.541Z,95.40
2018-09-25T20:49:35.902Z,96.60
2018-09-25T20:52:09.781Z,95.90
2018-09-25T20:54:43.295Z,96.40
2018-09-25T20:57:16.727Z,96.90
2018-09-25T20:59:50.026Z,97.00
2018-09-25T21:02:23.697Z,97.50
2018-09-25T21:04:57.688Z,97.10
2018-09-25T21:07:31.224Z,97.40
2018-09-25T21:10:04.785Z,97.30
2018-09-25T21:12:38.093Z,97.60
2018-09-25T21:15:11.737Z,98.10
2018-09-25T21:17:45.064Z,98.00
2018-09-25T21:20:18.512Z,98.50
2018-09-25T21:22:51.901Z,98.60
2018-09-25T21:25:25.401Z,98.20
2018-09-25T21:27:59.012Z,98.50
2018-09-25T21:30:32.293Z,99.10
2018-09-25T21:33:05.760Z,99.20
2018-09-25T21:35:39.177Z,98.90
2018-09-25T21:38:12.567Z,99.90
2018-09-25T21:40:46.061Z,99.90
2018-09-25T21:43:19.493Z,99.90
2018-09-25T21:45:52.851Z,99.40
2018-09-25T21:48:26.290Z,99.90
2018-09-25T21:50:59.908Z,99.90
2018-09-25T21:53:33.333Z,99.90
2018-09-25T21:56:06.641Z,99.90
2018-09-25T21:58:40.100Z,99.90
2018-09-25T22:01:13.404Z,99.90
2018-09-25T22:03:46.783Z,99.90
2018-09-25T22:06:20.164Z,99.90
2018-09-25T22:08:53.543Z,99.90
2018-09-25T22:11:26.869Z,99.90
2018-09-25T22:14:00.256Z,99.90
2018-09-25T22:16:33.643Z,99.90
2018-09-25T22:19:07.262Z,99.90
2018-09-25T22:21:40.466Z,99.90
2018-09-25T22:24:13.971Z,99.90
2018-09-25T22:26:47.332Z,99.90
2018-09-25T22:29:20.620Z,99.90
2018-09-25T22:31:54.698Z,99.90
2018-09-25T22:34:28.279Z,99.90
2018-09-25T22:37:01.619Z,99.90
2018-09-25T22:39:35.476Z,99.90
2018-09-25T22:42:09.693Z,99.90
2018-09-25T22:44:43.155Z,99.90
2018-09-25T22:47:16.641Z,99.90
2018-09-25T22:49:50.284Z,99.90
2018-09-25T22:52:23.901Z,99.90
2018-09-25T22:54:57.238Z,99.90
2018-09-25T22:57:30.578Z,99.90
2018-09-25T23:00:04.126Z,99.90
2018-09-25T23:02:37.773Z,99.90
2018-09-25T23:05:11.202Z,99.90
2018-09-25T23:07:44.715Z,99.90
2018-09-25T23:10:18.318Z,99.90
2018-09-25T23:12:51.722Z,99.90
2018-09-25T23:15:25.370Z,99.90
2018-09-25T23:17:58.874Z,99.90
2018-09-25T23:20:32.516Z,99.90
2018-09-25T23:23:05.959Z,99.90
2018-09-25T23:25:39.374Z,99.90
2018-09-25T23:28:12.759Z,99.90
2018-09-25T23:30:46.462Z,99.90
2018-09-25T23:33:20.023Z,99.90
2018-09-25T23:35:53.474Z,99.90
2018-09-25T23:38:27.081Z,99.90
2018-09-25T23:41:00.724Z,99.90
2018-09-25T23:43:35.128Z,99.90
2018-09-25T23:46:08.542Z,99.90
2018-09-25T23:48:43.878Z,99.90
2018-09-25T23:51:17.522Z,99.90
2018-09-25T23:53:51.482Z,99.90
2018-09-25T23:56:28.370Z,99.90
2018-09-25T23:59:07.030Z,99.90
